Time;durP1;ratioP1;P1;durP2;ratioP2;P2;SDS_P1;SDS_P2;PMS_P1;PMS_P2;Temp;Humidity;BMP_temperature;BMP_pressure;BME280_temperature;BME280_humidity;BME280_pressure;Samples;Min_cycle;Max_cycle;Signal;HPM_P1;HPM_P2
2021/05/14 00:02:08;;;;;;;17.15;11.70;;;;;;;10.50;90.80;99526.66;5017346;28;20061;-80
2021/05/14 00:04:34;;;;;;;15.23;11.15;;;;;;;10.50;90.61;99521.41;5017340;28;20045;-80
2021/05/14 00:06:59;;;;;;;17.52;12.05;;;;;;;10.43;90.56;99531.22;5019151;28;20245;-80
2021/05/14 00:09:24;;;;;;;17.52;12.05;;;;;;;10.42;90.37;99528.63;5016969;28;20045;-80
2021/05/14 00:11:50;;;;;;;17.10;12.05;;;;;;;10.44;90.75;99516.25;5018438;28;20038;-80
2021/05/14 00:14:15;;;;;;;16.55;11.85;;;;;;;10.44;90.72;99513.63;5040134;28;20514;-80
2021/05/14 00:16:41;;;;;;;15.38;11.93;;;;;;;10.40;90.38;99510.19;5018888;28;20508;-80
2021/05/14 00:19:07;;;;;;;18.38;12.23;;;;;;;10.45;90.60;99507.44;5016725;28;20041;-80
2021/05/14 00:21:33;;;;;;;15.70;11.23;;;;;;;10.42;90.06;99503.09;5017065;28;20041;-80
2021/05/14 00:23:58;;;;;;;16.85;11.32;;;;;;;10.40;90.12;99509.31;5025492;28;20034;-79
2021/05/14 00:26:24;;;;;;;16.63;11.35;;;;;;;10.37;90.27;99510.25;5019892;28;20076;-80
2021/05/14 00:28:49;;;;;;;16.88;10.85;;;;;;;10.34;89.90;99505.03;5017566;28;20049;-80
2021/05/14 00:31:15;;;;;;;13.65;10.32;;;;;;;10.27;89.90;99504.31;5015194;28;20057;-80
2021/05/14 00:33:41;;;;;;;13.55;10.25;;;;;;;10.25;90.20;99498.16;5018272;28;20060;-80
2021/05/14 00:36:07;;;;;;;13.13;9.52;;;;;;;10.21;90.38;99512.31;5037461;28;20042;-80
2021/05/14 00:38:33;;;;;;;12.77;9.70;;;;;;;10.16;90.61;99508.03;5024910;28;20054;-80
2021/05/14 00:40:58;;;;;;;14.93;8.68;;;;;;;10.11;90.37;99518.66;5015082;28;20114;-80
2021/05/14 00:43:23;;;;;;;12.07;9.25;;;;;;;10.08;90.41;99506.41;5021661;28;20022;-80
2021/05/14 00:45:49;;;;;;;10.48;8.15;;;;;;;10.11;90.09;99508.13;5020364;28;20027;-80
2021/05/14 00:48:14;;;;;;;12.80;8.50;;;;;;;10.06;89.92;99517.88;5019429;28;20064;-81
2021/05/14 00:50:40;;;;;;;11.48;7.72;;;;;;;10.05;90.14;99508.25;5027863;28;20052;-80
2021/05/14 00:53:06;;;;;;;11.82;8.32;;;;;;;10.06;90.07;99512.63;5020560;28;20034;-80
2021/05/14 00:55:31;;;;;;;12.05;8.10;;;;;;;10.08;90.66;99508.19;5026336;28;20515;-80
2021/05/14 00:57:57;;;;;;;11.85;7.28;;;;;;;10.00;90.68;99508.34;5021765;28;20037;-81
2021/05/14 01:00:23;;;;;;;11.50;8.27;;;;;;;9.97;90.54;99511.03;5018536;28;20076;-80
2021/05/14 01:02:51;;;;;;;11.93;7.88;;;;;;;9.98;90.23;99510.16;5018863;28;20034;-81
2021/05/14 01:05:21;;;;;;;10.00;7.40;;;;;;;9.97;90.57;99511.03;5020838;28;20037;-80
2021/05/14 01:07:46;;;;;;;10.00;6.93;;;;;;;9.97;90.43;99505.78;5019033;28;20038;-80
2021/05/14 01:10:12;;;;;;;9.68;6.40;;;;;;;9.96;90.38;99509.31;5018091;28;20232;-80
2021/05/14 01:12:37;;;;;;;9.90;6.88;;;;;;;9.94;90.18;99505.84;5020255;28;20033;-80
2021/05/14 01:15:04;;;;;;;9.77;6.47;;;;;;;9.94;90.49;99500.56;5017914;28;20045;-80
2021/05/14 01:17:30;;;;;;;12.68;7.45;;;;;;;9.95;89.88;99504.06;5034253;28;20053;-80
2021/05/14 01:19:57;;;;;;;7.53;5.75;;;;;;;9.93;90.35;99506.75;5019613;28;20042;-80
2021/05/14 01:22:25;;;;;;;9.45;6.55;;;;;;;9.92;90.08;99502.34;5018751;28;20471;-80
2021/05/14 01:24:50;;;;;;;8.15;6.47;;;;;;;9.88;90.36;99501.56;5021067;28;20113;-81
2021/05/14 01:27:16;;;;;;;10.90;6.25;;;;;;;9.91;90.29;99505.03;5016773;28;20045;-81
2021/05/14 01:29:43;;;;;;;7.75;5.88;;;;;;;9.94;90.45;99507.63;5036913;28;20066;-80
2021/05/14 01:32:08;;;;;;;11.10;6.57;;;;;;;9.94;90.08;99505.84;5020445;28;20045;-80
2021/05/14 01:34:34;;;;;;;11.98;7.10;;;;;;;9.96;90.37;99511.94;5017511;28;20054;-80
2021/05/14 01:36:59;;;;;;;11.25;7.85;;;;;;;9.97;89.96;99505.78;5043106;28;20503;-81
2021/05/14 01:39:26;;;;;;;13.50;7.85;;;;;;;10.04;90.00;99511.81;5018764;28;20137;-81
2021/05/14 01:41:51;;;;;;;9.68;7.55;;;;;;;10.06;90.25;99509.97;5018925;28;20041;-80
2021/05/14 01:44:17;;;;;;;10.80;7.68;;;;;;;10.07;89.84;99504.69;5017044;28;20038;-81
2021/05/14 01:46:42;;;;;;;11.45;7.28;;;;;;;10.13;89.56;99502.81;5034772;28;20025;-80
2021/05/14 01:49:08;;;;;;;14.95;8.60;;;;;;;10.16;89.30;99508.03;5017715;28;20325;-80
2021/05/14 01:51:33;;;;;;;12.63;8.13;;;;;;;10.17;89.51;99512.44;5015756;28;20057;-80
2021/05/14 01:53:59;;;;;;;11.27;8.65;;;;;;;10.19;89.26;99506.22;5026362;28;20164;-80
2021/05/14 01:56:25;;;;;;;11.80;8.48;;;;;;;10.24;89.32;99520.19;5018867;28;20062;-81
2021/05/14 01:58:51;;;;;;;11.63;8.05;;;;;;;10.20;89.47;99518.50;5024682;28;20069;-81
2021/05/14 02:01:17;;;;;;;12.73;9.43;;;;;;;10.17;89.18;99509.78;5018730;28;20058;-80
2021/05/14 02:03:42;;;;;;;11.27;8.55;;;;;;;10.15;89.11;99514.22;5017986;28;20034;-81
2021/05/14 02:06:08;;;;;;;13.75;8.45;;;;;;;10.15;89.12;99519.50;5017808;28;20049;-80
2021/05/14 02:08:34;;;;;;;14.70;10.07;;;;;;;10.13;89.57;99516.88;5025974;28;20030;-80
2021/05/14 02:11:00;;;;;;;13.30;9.30;;;;;;;10.21;88.81;99506.16;5033899;28;20042;-81
2021/05/14 02:13:25;;;;;;;12.23;8.90;;;;;;;10.21;88.72;99516.72;5017599;28;20031;-81
2021/05/14 02:15:51;;;;;;;13.25;10.25;;;;;;;10.18;88.98;99509.75;5016334;28;20065;-81
2021/05/14 02:18:16;;;;;;;13.23;9.70;;;;;;;10.20;89.55;99512.34;5018761;28;20042;-80
2021/05/14 02:20:41;;;;;;;12.65;9.63;;;;;;;10.21;89.01;99514.06;5015990;28;20128;-80
2021/05/14 02:23:07;;;;;;;13.80;10.68;;;;;;;10.23;89.49;99512.28;5014295;28;20077;-80
2021/05/14 02:25:32;;;;;;;15.60;11.07;;;;;;;10.19;89.56;99516.78;5018155;28;20048;-80
2021/05/14 02:27:58;;;;;;;14.80;10.95;;;;;;;10.19;89.89;99511.50;5015843;28;20121;-81
2021/05/14 02:30:23;;;;;;;14.40;9.70;;;;;;;10.15;89.46;99512.44;5016517;28;20052;-81
2021/05/14 02:32:49;;;;;;;13.77;10.70;;;;;;;10.16;89.40;99515.94;5024452;28;20072;-80
2021/05/14 02:35:15;;;;;;;16.42;11.27;;;;;;;10.13;89.66;99514.25;5014788;28;20068;-80
2021/05/14 02:37:41;;;;;;;14.55;11.35;;;;;;;10.14;89.38;99505.44;5015786;28;20130;-81
2021/05/14 02:40:07;;;;;;;13.18;10.40;;;;;;;10.18;89.60;99512.38;5024167;28;20030;-80
2021/05/14 02:42:33;;;;;;;16.40;11.15;;;;;;;10.20;89.48;99512.34;5024988;28;20089;-81
2021/05/14 02:44:58;;;;;;;16.02;12.13;;;;;;;10.23;89.21;99518.41;5016458;28;20030;-80
2021/05/14 02:47:23;;;;;;;13.57;10.13;;;;;;;10.21;89.14;99520.22;5016788;28;20053;-80
2021/05/14 02:49:49;;;;;;;15.50;10.57;;;;;;;10.21;89.66;99511.44;5018004;28;20097;-80
2021/05/14 02:52:14;;;;;;;15.57;10.82;;;;;;;10.20;89.28;99517.63;5035870;28;20090;-80
2021/05/14 02:54:40;;;;;;;14.45;10.40;;;;;;;10.19;89.26;99514.13;5019217;28;20057;-80
2021/05/14 02:57:05;;;;;;;13.27;10.52;;;;;;;10.18;89.59;99515.00;5016371;28;20493;-81
2021/05/14 02:59:31;;;;;;;14.88;10.68;;;;;;;10.22;89.50;99516.69;5018610;28;20030;-81
2021/05/14 03:01:57;;;;;;;12.52;9.73;;;;;;;10.27;89.92;99516.56;5015927;28;20030;-81
2021/05/14 03:04:23;;;;;;;13.18;10.05;;;;;;;10.31;89.55;99516.53;5014124;28;20102;-80
2021/05/14 03:06:48;;;;;;;14.80;10.50;;;;;;;10.31;89.90;99518.28;5018681;28;20042;-81
2021/05/14 03:09:14;;;;;;;13.65;10.48;;;;;;;10.34;89.13;99512.94;5015469;28;20061;-81
2021/05/14 03:11:39;;;;;;;14.95;11.40;;;;;;;10.41;89.63;99513.69;5015011;28;20052;-81
2021/05/14 03:14:06;;;;;;;13.93;10.18;;;;;;;10.44;89.20;99524.19;5018453;28;20038;-80
2021/05/14 03:16:33;;;;;;;13.55;9.93;;;;;;;10.47;89.35;99524.09;5014130;28;20041;-81
2021/05/14 03:18:58;;;;;;;14.80;10.82;;;;;;;10.45;88.59;99524.16;5017058;28;20053;-80
2021/05/14 03:21:23;;;;;;;15.63;10.50;;;;;;;10.45;88.87;99520.63;5023710;28;20030;-80
2021/05/14 03:23:49;;;;;;;13.35;9.57;;;;;;;10.47;89.02;99521.47;5018590;28;20431;-80
2021/05/14 03:26:14;;;;;;;13.40;9.73;;;;;;;10.47;89.11;99522.34;5016736;28;20110;-81
2021/05/14 03:28:39;;;;;;;11.57;8.68;;;;;;;10.45;88.72;99518.88;5017254;28;20034;-81
2021/05/14 03:31:05;;;;;;;13.57;10.18;;;;;;;10.48;89.20;99524.09;5030611;28;20042;-81
2021/05/14 03:33:30;;;;;;;12.13;9.77;;;;;;;10.53;88.64;99522.22;5034635;28;20073;-81
2021/05/14 03:35:55;;;;;;;11.10;9.35;;;;;;;10.56;88.73;99520.38;5015908;28;20041;-80
2021/05/14 03:38:23;;;;;;;12.23;9.20;;;;;;;10.62;88.59;99526.41;5023566;28;20034;-80
2021/05/14 03:40:49;;;;;;;12.45;8.73;;;;;;;10.61;88.76;99524.69;5017918;28;20077;-81
2021/05/14 03:43:15;;;;;;;12.52;9.23;;;;;;;10.60;88.12;99522.94;5017029;28;20147;-81
2021/05/14 03:45:40;;;;;;;11.50;9.15;;;;;;;10.63;88.12;99524.63;5022710;28;20038;-81
2021/05/14 03:48:19;;;;;;;12.32;9.48;;;;;;;10.59;88.26;99531.75;5015591;28;20042;-81
2021/05/14 03:50:50;;;;;;;10.68;8.07;;;;;;;10.61;88.26;99529.06;5015420;28;20034;-81
2021/05/14 03:53:16;;;;;;;12.88;9.55;;;;;;;10.70;88.34;99534.16;5001655;28;20038;-81
2021/05/14 03:55:42;;;;;;;10.35;8.35;;;;;;;10.67;87.86;99535.09;5022626;28;20025;-81
2021/05/14 03:58:07;;;;;;;10.00;7.53;;;;;;;10.66;87.91;99540.41;5034155;28;20037;-81
2021/05/14 04:00:33;;;;;;;11.30;8.00;;;;;;;10.63;87.83;99537.81;5035170;28;20145;-81
2021/05/14 04:02:58;;;;;;;11.65;8.70;;;;;;;10.65;87.63;99536.03;5018680;28;20034;-81
2021/05/14 04:05:24;;;;;;;10.15;7.72;;;;;;;10.66;87.56;99543.03;5014292;28;20724;-80
2021/05/14 04:07:49;;;;;;;12.18;7.97;;;;;;;10.66;87.89;99543.03;5017941;28;20053;-81
2021/05/14 04:15:27;;;;;;;10.93;8.13;;;;;;;10.65;87.30;99542.16;5019146;28;20038;-80
2021/05/14 04:17:53;;;;;;;11.65;8.35;;;;;;;10.65;87.08;99541.31;5021401;28;20081;-81
2021/05/14 04:20:18;;;;;;;10.10;7.80;;;;;;;10.62;87.53;99544.03;5018863;28;20042;-81
2021/05/14 04:22:44;;;;;;;13.45;9.05;;;;;;;10.56;87.09;99538.84;5019804;28;20037;-81
2021/05/14 04:25:10;;;;;;;10.88;8.20;;;;;;;10.56;87.30;99541.50;5028679;28;20084;-81
2021/05/14 04:27:35;;;;;;;9.80;7.32;;;;;;;10.56;87.52;99537.13;5020931;28;20045;-81
2021/05/14 04:30:02;;;;;;;11.93;8.55;;;;;;;10.53;87.64;99540.69;5040641;28;20034;-80
2021/05/14 04:32:27;;;;;;;11.23;8.38;;;;;;;10.53;87.30;99545.97;5021975;28;20038;-80
2021/05/14 04:34:54;;;;;;;11.65;8.85;;;;;;;10.49;87.72;99541.63;5018372;28;20065;-81
2021/05/14 04:37:19;;;;;;;13.73;8.90;;;;;;;10.48;87.41;99547.81;5020983;28;20109;-80
2021/05/14 04:39:44;;;;;;;13.25;8.95;;;;;;;10.50;87.42;99543.38;5026375;28;20038;-80
2021/05/14 04:42:10;;;;;;;12.15;9.48;;;;;;;10.48;87.01;99542.56;5021996;28;20041;-81
2021/05/14 04:44:35;;;;;;;13.18;9.18;;;;;;;10.45;87.47;99544.38;5018436;28;20084;-81
2021/05/14 04:47:00;;;;;;;15.43;9.77;;;;;;;10.42;87.19;99547.94;5018102;28;20480;-81
2021/05/14 04:49:26;;;;;;;12.65;8.90;;;;;;;10.42;87.38;99550.56;5020764;28;20480;-80
2021/05/14 04:51:51;;;;;;;12.50;9.55;;;;;;;10.39;87.61;99555.06;5016721;28;20026;-81
2021/05/14 04:54:16;;;;;;;14.85;10.52;;;;;;;10.38;87.96;99548.06;5035633;28;20034;-80
2021/05/14 04:56:42;;;;;;;12.63;8.63;;;;;;;10.47;87.40;99547.84;5020411;28;20042;-80
2021/05/14 04:59:07;;;;;;;13.00;8.85;;;;;;;10.39;87.47;99548.00;5017023;28;20038;-80
2021/05/14 05:01:33;;;;;;;12.63;8.75;;;;;;;10.41;87.71;99551.50;5018507;28;20048;-80
2021/05/14 05:03:59;;;;;;;14.07;9.32;;;;;;;10.44;87.77;99547.91;5041974;28;20030;-80
2021/05/14 05:06:24;;;;;;;12.07;9.25;;;;;;;10.47;87.32;99554.00;5012294;28;20061;-80
2021/05/14 05:08:51;;;;;;;15.75;10.93;;;;;;;10.38;87.31;99564.75;5033502;28;20046;-80
2021/05/14 05:11:16;;;;;;;12.10;8.95;;;;;;;10.43;87.54;99560.25;5019201;28;20041;-81
2021/05/14 05:13:42;;;;;;;16.88;11.45;;;;;;;10.49;87.58;99556.59;5020606;28;20048;-80
2021/05/14 05:16:08;;;;;;;14.93;10.15;;;;;;;10.49;87.45;99556.59;5018420;28;20042;-80
2021/05/14 05:18:34;;;;;;;14.93;10.15;;;;;;;10.52;87.04;99551.25;5019158;28;20037;-81
2021/05/14 05:20:59;;;;;;;15.57;10.15;;;;;;;10.51;87.59;99560.09;5025502;28;20038;-80
2021/05/14 05:23:25;;;;;;;14.43;9.57;;;;;;;10.42;87.76;99563.75;5021100;28;20029;-81
2021/05/14 05:25:50;;;;;;;15.43;10.88;;;;;;;10.40;88.23;99572.59;5017612;28;20038;-81
2021/05/14 05:28:23;;;;;;;15.55;11.02;;;;;;;10.42;87.85;99574.31;5017735;28;20042;-80
2021/05/14 05:30:49;;;;;;;14.77;10.00;;;;;;;10.40;88.49;99575.25;5019274;28;20037;-80
2021/05/14 05:33:15;;;;;;;15.10;11.13;;;;;;;10.36;88.26;99570.94;5016014;28;20046;-80
2021/05/14 05:35:40;;;;;;;17.60;11.77;;;;;;;10.37;88.66;99572.69;5016576;28;20042;-81
2021/05/14 05:38:14;;;;;;;14.55;10.07;;;;;;;10.36;88.58;99576.22;5018972;28;20044;-81
2021/05/14 05:40:40;;;;;;;12.77;9.55;;;;;;;10.30;89.09;99578.09;5017623;28;20045;-81
2021/05/14 05:43:05;;;;;;;14.60;10.52;;;;;;;10.31;89.52;99589.50;5016007;28;20034;-80
2021/05/14 05:45:30;;;;;;;13.77;9.95;;;;;;;10.35;88.86;99593.84;5019413;28;20037;-80
2021/05/14 05:47:56;;;;;;;15.63;10.98;;;;;;;10.34;88.90;99596.47;5039063;28;20052;-80
2021/05/14 05:50:21;;;;;;;14.52;10.55;;;;;;;10.38;88.73;99595.53;5025985;28;20042;-80
2021/05/14 05:52:46;;;;;;;19.65;12.15;;;;;;;10.39;89.07;99598.13;5015769;28;20038;-80
2021/05/14 05:55:12;;;;;;;14.93;10.00;;;;;;;10.41;88.33;99598.97;5018513;28;20034;-80
2021/05/14 05:57:37;;;;;;;13.35;9.48;;;;;;;10.51;88.64;99602.28;5017995;28;20034;-81
2021/05/14 06:00:04;;;;;;;17.98;10.80;;;;;;;10.57;88.22;99606.56;5031929;28;20048;-80
2021/05/14 06:02:31;;;;;;;16.23;10.45;;;;;;;10.59;88.34;99613.56;5016156;28;20034;-81
2021/05/14 06:04:56;;;;;;;15.25;11.32;;;;;;;10.56;88.86;99610.09;5033506;28;20034;-80
2021/05/14 06:07:22;;;;;;;13.93;10.10;;;;;;;10.52;88.72;99615.44;5021406;28;20034;-80
2021/05/14 06:09:47;;;;;;;13.75;10.82;;;;;;;10.50;89.20;99611.94;5016458;28;20039;-80
2021/05/14 06:12:12;;;;;;;17.92;11.65;;;;;;;10.49;89.00;99615.50;5020249;28;20042;-79
2021/05/14 06:14:38;;;;;;;16.05;12.07;;;;;;;10.41;89.83;99619.22;5020407;28;20034;-79
2021/05/14 06:17:10;;;;;;;17.13;10.57;;;;;;;10.43;89.35;99615.66;5045288;28;20069;-79
2021/05/14 06:19:42;;;;;;;18.60;11.85;;;;;;;10.44;89.40;99622.63;5020716;28;20057;-79
2021/05/14 06:22:07;;;;;;;15.38;11.55;;;;;;;10.44;90.14;99627.06;5043873;28;20068;-79
2021/05/14 06:24:32;;;;;;;17.63;12.13;;;;;;;10.48;89.19;99629.59;5021932;28;20029;-78
2021/05/14 06:26:58;;;;;;;16.48;12.85;;;;;;;10.52;89.67;99620.72;5021050;28;20362;-79
2021/05/14 06:29:24;;;;;;;17.90;12.20;;;;;;;10.56;89.21;99626.81;5019249;28;20275;-79
2021/05/14 06:31:49;;;;;;;18.50;13.40;;;;;;;10.61;89.90;99626.69;5043836;28;20114;-79
2021/05/14 06:34:14;;;;;;;18.73;13.30;;;;;;;10.62;88.93;99624.03;5018687;28;20037;-80
2021/05/14 06:36:40;;;;;;;15.52;11.45;;;;;;;10.59;89.74;99631.16;5023000;28;20053;-80
2021/05/14 06:39:05;;;;;;;16.30;13.02;;;;;;;10.65;89.55;99633.66;5016620;28;20034;-79
2021/05/14 06:41:31;;;;;;;17.95;12.15;;;;;;;10.73;89.39;99637.00;5019324;28;20060;-80
2021/05/14 06:43:57;;;;;;;16.48;11.82;;;;;;;10.78;89.68;99643.06;5017985;28;20097;-79
2021/05/14 06:46:23;;;;;;;17.55;12.88;;;;;;;10.84;89.09;99642.06;5017206;28;20026;-79
2021/05/14 06:48:49;;;;;;;18.55;11.63;;;;;;;10.89;89.38;99646.31;5018463;28;20044;-80
2021/05/14 06:51:14;;;;;;;15.27;10.40;;;;;;;10.93;88.68;99647.16;5031906;28;20038;-80
2021/05/14 06:53:40;;;;;;;13.82;10.00;;;;;;;11.00;88.60;99647.88;5015638;28;20350;-79
2021/05/14 06:56:06;;;;;;;13.60;9.63;;;;;;;11.01;88.62;99645.22;5018733;28;20041;-80
2021/05/14 06:58:32;;;;;;;14.73;10.98;;;;;;;11.12;88.41;99652.88;5021506;28;20054;-79
2021/05/14 07:00:57;;;;;;;14.88;9.65;;;;;;;11.07;88.48;99650.34;5019461;28;20409;-79
2021/05/14 07:03:22;;;;;;;11.10;8.45;;;;;;;11.14;87.87;99645.81;5015361;28;20038;-79
2021/05/14 07:05:48;;;;;;;12.25;8.25;;;;;;;11.19;88.08;99643.94;5018522;28;20101;-79
2021/05/14 07:08:13;;;;;;;11.30;7.10;;;;;;;11.24;86.68;99652.63;5022517;28;20041;-80
2021/05/14 07:10:39;;;;;;;11.93;7.45;;;;;;;11.12;87.27;99652.88;5027319;28;20666;-80
2021/05/14 07:13:04;;;;;;;9.25;6.35;;;;;;;11.15;86.59;99658.09;5030982;28;20090;-79
2021/05/14 07:15:30;;;;;;;8.65;6.05;;;;;;;11.04;85.89;99662.75;5018574;28;20053;-79
2021/05/14 07:17:55;;;;;;;9.70;6.07;;;;;;;10.94;86.90;99655.03;5018885;28;20038;-80
2021/05/14 07:20:20;;;;;;;9.23;6.20;;;;;;;10.99;87.65;99651.44;4998704;28;20093;-79
2021/05/14 07:22:46;;;;;;;10.30;5.65;;;;;;;10.93;86.82;99655.94;5034463;28;20045;-79
2021/05/14 07:25:12;;;;;;;8.38;5.78;;;;;;;10.97;87.10;99652.31;5018900;28;20030;-79
2021/05/14 07:27:38;;;;;;;10.05;5.50;;;;;;;11.08;87.34;99648.56;5017292;28;20436;-79
2021/05/14 07:30:05;;;;;;;8.93;5.25;;;;;;;11.06;86.87;99655.69;5022987;28;20044;-79
2021/05/14 07:32:31;;;;;;;7.00;4.55;;;;;;;10.98;86.75;99666.41;5009720;28;20092;-80
2021/05/14 07:34:56;;;;;;;7.47;4.97;;;;;;;10.93;86.79;99661.22;5005944;28;20566;-80
2021/05/14 07:37:22;;;;;;;8.25;5.53;;;;;;;11.02;87.06;99661.91;5003205;28;20077;-80
2021/05/14 07:39:47;;;;;;;10.80;5.53;;;;;;;11.12;87.66;99669.59;5003618;28;20408;-80
2021/05/14 07:42:12;;;;;;;10.07;5.65;;;;;;;11.12;86.61;99664.31;5027221;28;20034;-80
2021/05/14 07:44:38;;;;;;;9.00;5.57;;;;;;;11.10;86.84;99659.97;5006477;28;20030;-80
2021/05/14 07:47:04;;;;;;;8.88;5.55;;;;;;;11.15;87.37;99668.66;5018662;28;20042;-79
2021/05/14 07:49:31;;;;;;;8.52;5.38;;;;;;;11.14;87.22;99674.84;5004136;28;20040;-80
2021/05/14 07:51:56;;;;;;;10.45;6.05;;;;;;;11.14;87.17;99672.22;5027745;28;20104;-80
2021/05/14 07:54:22;;;;;;;10.82;6.05;;;;;;;11.19;87.39;99672.97;5005591;28;20041;-80
2021/05/14 07:56:47;;;;;;;8.57;6.07;;;;;;;11.20;87.35;99677.34;5003960;28;20038;-80
2021/05/14 07:59:12;;;;;;;8.57;5.45;;;;;;;11.24;87.35;99679.03;5003661;28;20077;-80
2021/05/14 08:01:38;;;;;;;8.32;5.20;;;;;;;11.28;86.72;99674.53;5005412;28;20037;-80
2021/05/14 08:04:07;;;;;;;7.93;4.82;;;;;;;11.25;86.93;99683.41;5011806;28;20404;-80
2021/05/14 08:06:33;;;;;;;6.93;4.82;;;;;;;11.24;86.24;99673.75;5003794;28;20030;-80
2021/05/14 08:09:02;;;;;;;7.93;5.72;;;;;;;11.26;86.54;99677.19;5005747;28;20030;-80
2021/05/14 08:11:28;;;;;;;9.05;5.60;;;;;;;11.27;86.47;99668.41;5003772;28;20034;-80
2021/05/14 08:13:53;;;;;;;9.65;6.30;;;;;;;11.34;87.24;99680.56;5003688;28;20030;-80
2021/05/14 08:16:19;;;;;;;7.57;5.47;;;;;;;11.48;87.63;99671.44;5006127;28;20069;-80
2021/05/14 08:18:44;;;;;;;10.57;6.18;;;;;;;11.58;86.13;99672.94;5003714;28;20070;-80
2021/05/14 08:21:09;;;;;;;8.05;5.00;;;;;;;11.62;86.17;99677.25;5018880;28;20030;-80
2021/05/14 08:23:35;;;;;;;7.72;4.40;;;;;;;11.62;85.39;99674.63;5005850;28;20104;-80
2021/05/14 08:26:00;;;;;;;6.80;4.07;;;;;;;11.66;84.65;99676.28;5002899;28;20065;-80
2021/05/14 08:28:25;;;;;;;5.68;2.80;;;;;;;11.61;83.70;99673.75;5004687;28;20045;-80
2021/05/14 08:30:51;;;;;;;5.85;2.65;;;;;;;11.62;83.41;99677.25;5005425;28;20076;-80
2021/05/14 08:33:16;;;;;;;6.13;3.25;;;;;;;11.75;83.18;99681.34;5002116;28;20405;-80
2021/05/14 08:35:42;;;;;;;6.75;2.83;;;;;;;11.89;83.33;99681.03;5020465;28;20092;-80
2021/05/14 08:38:10;;;;;;;5.22;2.95;;;;;;;11.97;82.98;99687.00;5005065;28;20069;-80
2021/05/14 08:40:38;;;;;;;7.32;3.42;;;;;;;12.01;82.22;99683.38;5002890;28;20039;-81
2021/05/14 08:43:04;;;;;;;6.25;3.70;;;;;;;12.13;81.65;99684.84;5020119;28;20408;-80
2021/05/14 08:45:30;;;;;;;6.50;3.92;;;;;;;12.34;83.12;99686.06;5006612;28;20112;-80
2021/05/14 08:47:57;;;;;;;7.32;2.75;;;;;;;12.15;79.62;99688.28;5018515;28;20606;-81
2021/05/14 08:50:24;;;;;;;5.82;2.40;;;;;;;12.15;80.11;99690.94;5005064;28;20061;-80
2021/05/14 08:52:50;;;;;;;6.35;3.03;;;;;;;12.20;80.83;99691.69;5005454;28;20034;-80
2021/05/14 08:55:17;;;;;;;4.97;2.60;;;;;;;12.18;80.14;99706.75;5003181;28;20092;-81
2021/05/14 08:57:42;;;;;;;5.75;2.75;;;;;;;12.10;79.57;99691.97;5005071;28;20034;-81
2021/05/14 09:00:10;;;;;;;4.80;2.80;;;;;;;12.04;80.83;99698.28;5004611;28;20030;-81
2021/05/14 09:02:37;;;;;;;5.85;2.63;;;;;;;12.11;79.03;99694.59;5004882;28;20451;-81
2021/05/14 09:05:22;;;;;;;5.22;2.70;;;;;;;12.25;79.48;99679.22;5007650;28;20038;-81
2021/05/14 09:07:47;;;;;;;4.68;2.58;;;;;;;12.50;79.19;99686.50;5024345;28;20035;-81
2021/05/14 09:10:13;;;;;;;3.80;2.22;;;;;;;12.52;78.76;99695.25;5009292;28;20088;-81
2021/05/14 09:12:41;;;;;;;4.82;2.00;;;;;;;12.78;78.06;99709.53;5009046;28;20086;-81
2021/05/14 09:15:27;;;;;;;5.72;2.75;;;;;;;13.03;76.98;99701.78;5007459;28;20065;-81
2021/05/14 09:18:12;;;;;;;5.68;2.50;;;;;;;13.22;74.93;99695.00;5009483;28;20050;-81
2021/05/14 09:20:55;;;;;;;5.85;2.88;;;;;;;13.28;74.56;99694.88;5009258;28;20049;-81
2021/05/14 09:23:20;;;;;;;5.70;2.58;;;;;;;13.40;74.26;99704.22;5009181;28;20125;-81
2021/05/14 09:26:06;;;;;;;5.93;2.90;;;;;;;13.62;73.60;99706.19;5013435;28;20065;-81
2021/05/14 09:28:33;;;;;;;7.55;2.67;;;;;;;13.88;73.47;99708.00;5008287;28;20034;-81
2021/05/14 09:31:13;;;;;;;5.30;2.67;;;;;;;14.00;71.48;99713.75;5005486;28;20587;-81
2021/05/14 09:33:43;;;;;;;8.60;3.63;;;;;;;14.24;72.43;99705.91;5006051;28;20113;-81
2021/05/14 09:36:14;;;;;;;4.88;2.47;;;;;;;14.42;70.90;99691.97;5022117;28;20050;-81
2021/05/14 09:38:52;;;;;;;5.77;2.30;;;;;;;14.58;69.33;99705.59;5022783;28;20034;-81
2021/05/14 09:41:40;;;;;;;6.00;2.20;;;;;;;14.65;67.40;99706.28;5008970;28;20335;-82
2021/05/14 09:44:10;;;;;;;6.07;2.53;;;;;;;14.56;68.26;99709.25;5024359;28;20452;-81
2021/05/14 09:46:40;;;;;;;4.57;2.47;;;;;;;14.66;66.78;99710.66;5009349;28;20415;-81
2021/05/14 09:49:08;;;;;;;5.93;2.30;;;;;;;14.65;65.02;99706.28;5012288;28;20084;-81
2021/05/14 09:51:35;;;;;;;4.30;1.77;;;;;;;14.81;65.75;99702.13;5016340;28;20041;-81
2021/05/14 09:54:21;;;;;;;6.22;2.30;;;;;;;15.16;66.94;99691.97;5006460;28;20033;-81
2021/05/14 09:57:20;;;;;;;4.22;1.95;;;;;;;15.42;64.68;99698.06;5006544;28;20137;-81
2021/05/14 09:59:50;;;;;;;4.00;1.83;;;;;;;15.42;60.18;99698.91;5009224;28;20117;-81
2021/05/14 10:02:30;;;;;;;4.50;1.92;;;;;;;15.22;61.96;99701.47;5011181;28;20037;-81
2021/05/14 10:04:56;;;;;;;4.50;2.10;;;;;;;15.45;63.33;99703.25;5011196;28;20096;-81
2021/05/14 10:07:29;;;;;;;3.83;1.60;;;;;;;15.61;62.49;99692.88;5013815;28;20034;-81
2021/05/14 10:10:06;;;;;;;3.75;1.83;;;;;;;15.57;62.39;99694.78;5018900;28;20038;-81
2021/05/14 10:12:33;;;;;;;4.97;2.05;;;;;;;15.86;62.36;99698.09;5009353;28;20097;-81
2021/05/14 10:15:01;;;;;;;4.85;2.10;;;;;;;15.94;59.26;99680.03;5006613;28;20042;-81
2021/05/14 10:17:26;;;;;;;12.40;2.58;;;;;;;16.15;58.93;99696.88;5009480;28;20060;-82
2021/05/14 10:19:54;;;;;;;3.28;1.58;;;;;;;15.93;56.33;99712.91;5031091;28;20482;-81
2021/05/14 10:22:24;;;;;;;6.05;1.70;;;;;;;15.94;56.96;99685.34;5017949;28;20034;-82
2021/05/14 10:24:52;;;;;;;5.70;2.30;;;;;;;16.05;57.21;99699.06;5009177;28;20049;-81
2021/05/14 10:27:19;;;;;;;4.97;2.00;;;;;;;16.26;57.53;99697.28;5024073;28;20058;-82
2021/05/14 10:29:46;;;;;;;4.05;2.00;;;;;;;16.50;55.92;99699.81;5010372;28;20034;-81
2021/05/14 10:32:13;;;;;;;4.38;2.03;;;;;;;16.22;56.03;99695.72;5008617;28;20045;-82
2021/05/14 10:34:38;;;;;;;4.80;2.20;;;;;;;16.26;56.13;99680.44;5023527;28;20044;-81
2021/05/14 10:37:04;;;;;;;5.82;1.85;;;;;;;16.57;58.00;99690.63;5033452;28;20435;-82
2021/05/14 10:39:40;;;;;;;3.55;2.20;;;;;;;16.63;57.28;99698.34;5009275;28;20034;-82
2021/05/14 10:42:11;;;;;;;4.22;1.83;;;;;;;16.75;55.33;99687.16;5032512;28;20041;-82
2021/05/14 10:44:44;;;;;;;3.83;1.77;;;;;;;16.62;55.53;99689.50;5024586;28;20400;-81
2021/05/14 10:47:22;;;;;;;5.68;2.25;;;;;;;16.33;53.06;99704.09;5010192;28;20042;-81
2021/05/14 10:49:52;;;;;;;3.38;1.80;;;;;;;16.51;55.06;99683.78;5007653;28;20053;-81
2021/05/14 10:52:17;;;;;;;3.83;2.03;;;;;;;16.47;52.26;99681.31;5008630;28;20034;-81
2021/05/14 10:54:43;;;;;;;4.18;1.80;;;;;;;16.65;54.12;99691.16;5024288;28;20572;-81
2021/05/14 10:57:10;;;;;;;4.78;2.03;;;;;;;16.79;53.85;99679.91;5015786;28;20037;-81
2021/05/14 10:59:37;;;;;;;4.05;2.08;;;;;;;16.79;51.74;99670.13;5022284;28;20034;-81
2021/05/14 11:02:26;;;;;;;5.38;2.40;;;;;;;16.62;52.72;99684.16;5008471;28;20025;-81
2021/05/14 11:04:51;;;;;;;4.00;2.30;;;;;;;16.63;52.98;99685.03;5005763;28;20050;-81
2021/05/14 11:07:29;;;;;;;4.30;2.38;;;;;;;16.55;51.89;99689.84;5006328;28;20064;-81
2021/05/14 11:10:13;;;;;;;4.88;2.30;;;;;;;16.62;51.74;99678.84;5022276;28;20034;-81
2021/05/14 11:12:39;;;;;;;5.00;2.05;;;;;;;16.72;52.72;99681.09;5013874;28;20052;-81
2021/05/14 11:15:28;;;;;;;4.13;2.63;;;;;;;16.95;51.44;99675.63;5009381;28;20447;-81
2021/05/14 11:18:21;;;;;;;3.97;2.22;;;;;;;17.01;51.03;99686.00;5015932;28;20610;-81
2021/05/14 11:20:48;;;;;;;6.65;2.70;;;;;;;16.91;51.92;99679.34;5029562;28;20052;-81
2021/05/14 11:23:37;;;;;;;3.90;2.20;;;;;;;17.09;49.92;99681.19;5004817;28;20084;-81
2021/05/14 11:26:03;;;;;;;4.75;2.30;;;;;;;17.30;51.00;99676.63;5008117;28;20046;-81
2021/05/14 11:28:43;;;;;;;4.28;2.70;;;;;;;17.52;49.56;99676.47;5009006;28;20068;-81
2021/05/14 11:31:15;;;;;;;4.57;2.67;;;;;;;17.83;48.85;99682.16;5030897;28;20048;-81
2021/05/14 11:33:49;;;;;;;4.22;2.20;;;;;;;17.88;48.35;99677.44;5007385;28;20038;-81